Time;durP1;ratioP1;P1;durP2;ratioP2;P2;SDS_P1;SDS_P2;PMS_P1;PMS_P2;Temp;Humidity;BMP_temperature;BMP_pressure;BME280_temperature;BME280_humidity;BME280_pressure;Samples;Min_cycle;Max_cycle;Signal;HPM_P1;HPM_P2
2022/04/03 00:01:42;;;;;;;8.68;2.17;;;;;;;0.21;58.11;100598.78;5061903;28;20021;-59
2022/04/03 00:04:07;;;;;;;13.00;2.13;;;;;;;0.24;58.38;100602.34;5063006;28;20021;-59
2022/04/03 00:06:32;;;;;;;4.80;1.85;;;;;;;0.22;58.72;100591.19;5063159;28;20025;-59
2022/04/03 00:08:58;;;;;;;3.15;2.00;;;;;;;0.31;58.78;100598.34;5063185;28;20377;-59
2022/04/03 00:11:23;;;;;;;5.28;1.90;;;;;;;0.36;59.51;100589.16;5061839;28;20047;-60
2022/04/03 00:13:49;;;;;;;7.45;1.80;;;;;;;0.43;59.69;100585.13;5063395;28;20021;-60
2022/04/03 00:16:15;;;;;;;3.08;1.60;;;;;;;0.48;59.73;100581.06;5066300;28;20024;-60
2022/04/03 00:18:41;;;;;;;3.90;1.50;;;;;;;0.56;60.21;100583.03;5067005;28;20477;-60
2022/04/03 00:21:06;;;;;;;5.07;1.77;;;;;;;0.60;60.48;100580.63;5067578;28;20035;-60
2022/04/03 00:23:31;;;;;;;5.82;1.95;;;;;;;0.65;60.80;100569.69;5065511;28;20500;-63
2022/04/03 00:25:57;;;;;;;5.90;2.03;;;;;;;0.72;60.92;100580.19;5067231;28;20021;-60
2022/04/03 00:28:22;;;;;;;12.07;2.60;;;;;;;0.76;60.53;100568.38;5066585;28;20051;-61
2022/04/03 00:30:48;;;;;;;6.68;2.78;;;;;;;0.76;61.20;100570.06;5065644;28;20092;-61
2022/04/03 00:33:14;;;;;;;6.28;2.47;;;;;;;0.77;61.54;100564.16;5066763;28;20033;-59
2022/04/03 00:35:40;;;;;;;6.32;2.10;;;;;;;0.81;61.13;100560.88;5065374;28;20397;-61
2022/04/03 00:38:06;;;;;;;5.22;1.75;;;;;;;0.82;61.34;100558.38;5066969;28;20024;-60
2022/04/03 00:40:31;;;;;;;6.10;2.10;;;;;;;0.74;61.95;100545.34;5066805;28;20060;-60
2022/04/03 00:42:57;;;;;;;4.88;1.80;;;;;;;0.78;62.41;100553.97;5066759;28;20279;-60
2022/04/03 00:45:22;;;;;;;8.02;1.95;;;;;;;0.82;62.61;100544.72;5066723;28;20067;-59
2022/04/03 00:47:51;;;;;;;8.00;2.58;;;;;;;0.86;62.20;100551.69;5066827;28;20031;-63
2022/04/03 00:50:17;;;;;;;4.78;1.98;;;;;;;0.85;62.62;100548.25;5066379;28;20086;-61
2022/04/03 00:52:43;;;;;;;4.18;2.05;;;;;;;0.86;63.15;100547.41;5066587;28;20021;-61
2022/04/03 00:55:09;;;;;;;4.85;2.08;;;;;;;0.87;63.32;100545.75;5066358;28;20087;-61
2022/04/03 00:57:34;;;;;;;5.07;2.22;;;;;;;0.81;63.75;100537.88;5066578;28;20131;-59
2022/04/03 01:00:01;;;;;;;5.32;2.00;;;;;;;0.81;64.29;100537.88;5066415;28;20024;-62
2022/04/03 01:02:27;;;;;;;4.07;2.15;;;;;;;0.80;63.67;100521.66;5066270;28;20036;-61
2022/04/03 01:04:52;;;;;;;8.05;2.58;;;;;;;0.90;63.33;100532.19;5066003;28;20017;-60
2022/04/03 01:07:18;;;;;;;6.95;2.13;;;;;;;0.95;62.76;100533.22;5066264;28;20017;-61
2022/04/03 01:09:44;;;;;;;7.55;2.00;;;;;;;0.96;62.92;100535.81;5066629;28;20027;-61
2022/04/03 01:12:10;;;;;;;4.13;2.22;;;;;;;0.98;62.50;100534.19;5066187;28;20021;-60
2022/04/03 01:14:40;;;;;;;4.80;2.17;;;;;;;0.95;62.44;100528.97;5066255;28;20035;-60
2022/04/03 01:17:09;;;;;;;6.70;2.13;;;;;;;0.93;62.39;100522.94;5066039;28;20449;-61
2022/04/03 01:19:35;;;;;;;5.53;2.05;;;;;;;0.93;62.38;100522.94;5065798;28;20039;-60
2022/04/03 01:22:00;;;;;;;9.38;3.70;;;;;;;0.92;62.47;100513.53;5066070;28;20056;-61
2022/04/03 01:24:26;;;;;;;7.90;2.20;;;;;;;0.98;62.60;100517.97;5065850;28;20028;-60
2022/04/03 01:26:52;;;;;;;4.72;2.30;;;;;;;0.97;62.36;100514.56;5065225;28;20017;-60
2022/04/03 01:29:18;;;;;;;6.63;2.08;;;;;;;0.88;62.21;100500.63;5065766;28;20021;-60
2022/04/03 01:31:46;;;;;;;8.20;2.10;;;;;;;0.91;62.70;100503.28;5065786;28;20029;-61
2022/04/03 01:34:12;;;;;;;6.03;2.55;;;;;;;0.92;63.50;100503.31;5065392;28;20405;-61
2022/04/03 01:36:37;;;;;;;5.47;2.00;;;;;;;0.98;63.65;100505.19;5065786;28;20028;-61
2022/04/03 01:39:03;;;;;;;7.10;3.13;;;;;;;1.02;63.51;100501.06;5065643;28;20078;-61
2022/04/03 01:41:28;;;;;;;8.35;2.35;;;;;;;1.00;63.54;100501.00;5065511;28;20021;-60
2022/04/03 01:43:53;;;;;;;6.20;2.22;;;;;;;1.01;63.68;100496.78;5065568;28;20456;-60
2022/04/03 01:46:19;;;;;;;5.05;1.90;;;;;;;0.97;63.86;100493.25;5065256;28;20037;-61
2022/04/03 01:48:44;;;;;;;3.78;2.10;;;;;;;0.94;64.06;100491.44;5065175;28;20549;-59
2022/04/03 01:51:09;;;;;;;4.35;2.05;;;;;;;0.92;64.17;100482.88;5065692;28;20052;-60
2022/04/03 01:53:35;;;;;;;5.85;2.33;;;;;;;0.89;64.28;100480.22;5064206;28;20052;-61
2022/04/03 01:56:03;;;;;;;5.90;2.50;;;;;;;0.92;64.25;100485.41;5065412;28;20025;-61
2022/04/03 01:58:29;;;;;;;4.82;2.28;;;;;;;0.90;64.16;100471.72;5065177;28;20056;-61
2022/04/03 02:00:55;;;;;;;8.13;2.53;;;;;;;0.90;63.78;100474.28;5065389;28;20032;-61
2022/04/03 02:03:21;;;;;;;10.30;3.10;;;;;;;0.82;63.48;100473.16;5063950;28;20025;-61
2022/04/03 02:05:46;;;;;;;4.78;2.08;;;;;;;0.76;63.70;100472.94;5064932;28;20378;-61
2022/04/03 02:08:12;;;;;;;4.65;2.00;;;;;;;0.65;63.71;100465.81;5065066;28;20108;-61
2022/04/03 02:10:38;;;;;;;4.63;2.10;;;;;;;0.59;63.80;100470.72;5065200;28;20032;-60
2022/04/03 02:13:04;;;;;;;5.03;2.47;;;;;;;0.47;63.80;100466.94;5065028;28;20064;-61
2022/04/03 02:15:30;;;;;;;4.38;2.40;;;;;;;0.39;63.62;100465.78;5065146;28;20032;-61
2022/04/03 02:17:55;;;;;;;8.18;2.20;;;;;;;0.33;64.08;100463.03;5064810;28;20412;-60
2022/04/03 02:20:20;;;;;;;6.97;2.50;;;;;;;0.34;64.80;100464.75;5064692;28;20048;-61
2022/04/03 02:22:46;;;;;;;4.80;2.55;;;;;;;0.42;64.99;100463.34;5063584;28;20024;-60
2022/04/03 02:25:11;;;;;;;4.88;2.30;;;;;;;0.50;65.42;100466.16;5064821;28;20025;-61
2022/04/03 02:27:46;;;;;;;5.60;2.30;;;;;;;0.57;65.47;100452.78;5063339;28;20511;-60
2022/04/03 02:30:13;;;;;;;3.33;1.90;;;;;;;0.58;65.21;100445.97;5063284;28;20024;-61
2022/04/03 02:32:40;;;;;;;4.78;2.03;;;;;;;0.53;65.09;100445.81;5064734;28;20048;-61
2022/04/03 02:35:10;;;;;;;5.35;2.80;;;;;;;0.42;64.77;100439.47;5064272;28;20017;-61
2022/04/03 02:37:36;;;;;;;6.82;2.58;;;;;;;0.40;64.97;100441.13;5064191;28;20022;-60
2022/04/03 02:40:04;;;;;;;6.05;2.30;;;;;;;0.29;64.77;100433.94;5064468;28;20337;-60
2022/04/03 02:42:30;;;;;;;6.85;2.50;;;;;;;0.21;64.69;100440.47;5064195;28;20080;-60
2022/04/03 02:44:55;;;;;;;6.68;2.50;;;;;;;0.15;64.97;100440.25;5064389;28;20048;-59
2022/04/03 02:47:22;;;;;;;5.05;2.50;;;;;;;0.12;64.87;100430.81;5064197;28;20514;-60
2022/04/03 02:49:50;;;;;;;7.20;2.92;;;;;;;0.12;65.42;100430.81;5064325;28;20403;-61
2022/04/03 02:52:16;;;;;;;6.93;3.00;;;;;;;0.16;65.87;100422.44;5064332;28;20021;-61
2022/04/03 02:54:41;;;;;;;8.48;2.78;;;;;;;0.19;65.82;100426.81;5064218;28;20063;-61
2022/04/03 02:57:07;;;;;;;4.90;2.78;;;;;;;0.21;65.54;100433.69;5064025;28;20021;-60
2022/04/03 02:59:33;;;;;;;5.45;2.75;;;;;;;0.17;65.48;100424.19;5064180;28;20039;-60
2022/04/03 03:01:59;;;;;;;6.30;2.78;;;;;;;0.09;65.18;100423.06;5064051;28;20028;-60
2022/04/03 03:04:24;;;;;;;6.25;2.75;;;;;;;-0.02;65.03;100423.53;5063723;28;20073;-59
2022/04/03 03:06:49;;;;;;;7.03;3.08;;;;;;;-0.11;64.94;100417.25;5063953;28;20060;-61
2022/04/03 03:09:15;;;;;;;5.22;3.25;;;;;;;-0.17;64.95;100410.25;5063972;28;20029;-61
2022/04/03 03:11:40;;;;;;;8.77;2.90;;;;;;;-0.14;66.01;100410.34;5063720;28;20044;-61
2022/04/03 03:14:05;;;;;;;5.72;3.17;;;;;;;-0.04;66.77;100406.44;5062434;28;20013;-61
2022/04/03 03:16:31;;;;;;;7.50;2.88;;;;;;;0.06;66.80;100407.63;5063531;28;20504;-61
2022/04/03 03:18:56;;;;;;;6.90;2.90;;;;;;;0.12;66.66;100405.28;5063570;28;20079;-60
2022/04/03 03:21:22;;;;;;;7.57;2.53;;;;;;;0.11;66.34;100404.41;5064244;28;20037;-61
2022/04/03 03:23:47;;;;;;;6.50;2.70;;;;;;;0.07;65.95;100399.16;5063763;28;20494;-61
2022/04/03 03:26:13;;;;;;;4.82;2.47;;;;;;;-0.03;65.56;100401.38;5063734;28;20021;-60
2022/04/03 03:28:38;;;;;;;6.10;2.63;;;;;;;-0.16;65.25;100400.09;5063638;28;20358;-60
2022/04/03 03:31:03;;;;;;;6.80;2.75;;;;;;;-0.27;65.17;100386.94;5063472;28;20056;-60
2022/04/03 03:33:29;;;;;;;4.80;2.53;;;;;;;-0.33;65.17;100389.28;5063417;28;20123;-60
2022/04/03 03:35:55;;;;;;;5.60;2.88;;;;;;;-0.42;65.14;100378.75;5063369;28;20035;-60
2022/04/03 03:38:20;;;;;;;5.85;2.60;;;;;;;-0.48;65.00;100375.97;5063447;28;20016;-60
2022/04/03 03:40:46;;;;;;;7.43;2.97;;;;;;;-0.54;65.16;100376.63;5063453;28;20510;-60
2022/04/03 03:43:11;;;;;;;5.97;2.55;;;;;;;-0.56;65.00;100378.25;5063328;28;20021;-60
2022/04/03 03:45:36;;;;;;;8.38;3.10;;;;;;;-0.65;64.76;100373.66;5063301;28;20044;-61
2022/04/03 03:48:02;;;;;;;5.53;2.58;;;;;;;-0.75;65.06;100373.34;5063253;28;20044;-61
2022/04/03 03:50:27;;;;;;;9.50;2.92;;;;;;;-0.89;65.33;100367.72;5062575;28;20031;-61
2022/04/03 03:52:53;;;;;;;7.53;3.00;;;;;;;-0.96;65.69;100368.31;5063255;28;20031;-61
2022/04/03 03:55:18;;;;;;;4.88;2.50;;;;;;;-1.04;66.11;100373.09;5063011;28;20024;-60
2022/04/03 03:57:47;;;;;;;7.95;2.58;;;;;;;-1.14;66.53;100363.38;5063167;28;20032;-61
2022/04/03 04:00:14;;;;;;;5.97;2.50;;;;;;;-1.16;66.77;100363.31;5063035;28;20021;-60
2022/04/03 04:02:40;;;;;;;3.85;1.80;;;;;;;-1.21;67.32;100366.47;5063082;28;20017;-60
2022/04/03 04:05:06;;;;;;;3.95;2.00;;;;;;;-1.30;67.51;100362.78;5062755;28;20021;-62
2022/04/03 04:07:42;;;;;;;4.57;2.50;;;;;;;-1.36;67.77;100362.53;5062785;28;20090;-60
2022/04/03 04:10:08;;;;;;;4.88;2.50;;;;;;;-1.37;67.65;100365.88;5063178;28;20024;-60
2022/04/03 04:12:35;;;;;;;7.18;2.65;;;;;;;-1.42;67.68;100363.16;5062763;28;20017;-60
2022/04/03 04:15:01;;;;;;;6.47;2.60;;;;;;;-1.44;67.82;100361.34;5062952;28;20028;-60
2022/04/03 04:17:26;;;;;;;6.30;2.50;;;;;;;-1.47;67.95;100362.09;5063016;28;20018;-60
2022/04/03 04:19:52;;;;;;;4.72;2.30;;;;;;;-1.49;68.10;100356.09;5062930;28;20491;-60
2022/04/03 04:22:17;;;;;;;5.53;2.25;;;;;;;-1.45;68.34;100354.53;5062829;28;20036;-63
2022/04/03 04:24:42;;;;;;;7.80;2.95;;;;;;;-1.47;68.50;100354.44;5062750;28;20029;-60
2022/04/03 04:27:08;;;;;;;7.32;3.40;;;;;;;-1.48;68.33;100357.81;5062788;28;20029;-60
2022/04/03 04:29:34;;;;;;;12.90;3.65;;;;;;;-1.45;68.53;100362.19;5062765;28;20024;-60
2022/04/03 04:31:59;;;;;;;6.53;2.55;;;;;;;-1.40;68.37;100355.56;5062879;28;20465;-60
2022/04/03 04:34:24;;;;;;;5.75;3.15;;;;;;;-1.33;68.06;100347.38;5062573;28;20031;-60
2022/04/03 04:36:50;;;;;;;10.43;3.20;;;;;;;-1.28;67.99;100353.50;5062916;28;20017;-61
2022/04/03 04:39:15;;;;;;;6.65;3.20;;;;;;;-1.23;67.91;100351.13;5063004;28;20021;-60
2022/04/03 04:41:40;;;;;;;8.10;3.00;;;;;;;-1.17;67.68;100359.03;5062917;28;20457;-60
2022/04/03 04:44:06;;;;;;;9.50;3.92;;;;;;;-1.11;67.72;100348.19;5062924;28;20073;-61
2022/04/03 04:46:31;;;;;;;8.38;3.58;;;;;;;-1.01;67.54;100345.19;5062489;28;20113;-62
2022/04/03 04:48:57;;;;;;;5.68;3.20;;;;;;;-0.94;67.71;100351.38;5062512;28;20040;-59
2022/04/03 04:51:22;;;;;;;7.05;3.17;;;;;;;-0.89;67.69;100351.56;5062862;28;20021;-61
2022/04/03 04:53:47;;;;;;;9.07;3.40;;;;;;;-0.86;67.56;100346.56;5062812;28;20024;-61
2022/04/03 04:56:13;;;;;;;5.95;3.60;;;;;;;-0.84;67.36;100336.44;5062780;28;20041;-61
2022/04/03 04:58:38;;;;;;;7.32;3.55;;;;;;;-0.78;67.80;100347.72;5062728;28;20428;-61
2022/04/03 05:01:04;;;;;;;8.13;3.65;;;;;;;-0.73;67.86;100344.47;5063635;28;20070;-61
2022/04/03 05:03:29;;;;;;;6.82;3.58;;;;;;;-0.70;67.81;100342.91;5066463;28;20045;-61
2022/04/03 05:05:56;;;;;;;7.45;3.25;;;;;;;-0.65;67.88;100336.31;5066288;28;20031;-61
2022/04/03 05:08:21;;;;;;;8.07;3.47;;;;;;;-0.63;68.06;100333.81;5066201;28;20021;-61
2022/04/03 05:10:48;;;;;;;12.80;3.97;;;;;;;-0.59;67.98;100334.78;5066300;28;20558;-61
2022/04/03 05:13:14;;;;;;;9.55;4.10;;;;;;;-0.52;68.23;100334.19;5066285;28;20065;-60
2022/04/03 05:15:39;;;;;;;8.52;2.55;;;;;;;-0.46;68.32;100331.00;5066542;28;20041;-61
2022/04/03 05:18:05;;;;;;;9.35;4.05;;;;;;;-0.45;68.43;100325.09;5065989;28;20154;-61
2022/04/03 05:20:30;;;;;;;8.55;3.80;;;;;;;-0.36;68.73;100330.50;5065883;28;20045;-61
2022/04/03 05:22:55;;;;;;;6.22;3.67;;;;;;;-0.27;68.99;100330.81;5066011;28;20025;-60
2022/04/03 05:25:21;;;;;;;12.63;4.68;;;;;;;-0.05;69.44;100323.88;5065967;28;20043;-61
2022/04/03 05:27:46;;;;;;;7.25;3.60;;;;;;;0.31;69.78;100326.75;5065867;28;20029;-61
2022/04/03 05:30:14;;;;;;;16.73;4.70;;;;;;;0.64;69.80;100326.06;5065851;28;20052;-61
2022/04/03 05:32:40;;;;;;;5.68;3.50;;;;;;;0.96;69.76;100323.63;5065596;28;20029;-60
2022/04/03 05:35:06;;;;;;;7.50;5.05;;;;;;;1.23;69.48;100319.28;5065678;28;20025;-62
2022/04/03 05:37:32;;;;;;;7.75;4.07;;;;;;;1.44;69.21;100313.00;5065751;28;20087;-60
2022/04/03 05:39:57;;;;;;;8.18;4.15;;;;;;;1.53;68.64;100318.41;5065595;28;20021;-61
2022/04/03 05:42:23;;;;;;;5.90;4.00;;;;;;;1.60;68.57;100316.84;5065563;28;20060;-62
2022/04/03 05:44:48;;;;;;;9.02;3.45;;;;;;;1.72;68.46;100314.66;5065699;28;20044;-60
2022/04/03 05:47:17;;;;;;;6.80;4.40;;;;;;;1.87;68.39;100308.16;5065170;28;20048;-60
2022/04/03 05:49:46;;;;;;;6.35;3.45;;;;;;;2.00;68.14;100311.06;5065367;28;20021;-61
2022/04/03 05:52:12;;;;;;;7.88;3.92;;;;;;;2.03;67.23;100313.72;5065689;28;20159;-61
2022/04/03 05:54:37;;;;;;;6.80;3.38;;;;;;;1.91;66.98;100307.44;5065465;28;20021;-60
2022/04/03 05:57:07;;;;;;;9.75;3.88;;;;;;;1.84;67.11;100308.97;5065462;28;20018;-60
2022/04/03 05:59:36;;;;;;;10.18;4.30;;;;;;;1.91;66.89;100299.75;5065372;28;20106;-60
2022/04/03 06:02:01;;;;;;;6.55;3.40;;;;;;;1.99;66.68;100299.94;5065154;28;20021;-60
2022/04/03 06:04:27;;;;;;;7.70;4.07;;;;;;;2.08;66.81;100304.41;5064918;28;20124;-61
2022/04/03 06:06:52;;;;;;;6.60;4.25;;;;;;;2.26;66.89;100303.13;5065165;28;20029;-61
2022/04/03 06:09:17;;;;;;;10.07;4.75;;;;;;;2.42;66.75;100292.44;5064997;28;20031;-60
2022/04/03 06:11:43;;;;;;;8.27;4.25;;;;;;;2.66;67.23;100288.69;5065174;28;20017;-61
2022/04/03 06:14:10;;;;;;;10.13;4.28;;;;;;;2.97;66.99;100289.34;5064483;28;20025;-60
2022/04/03 06:16:35;;;;;;;9.75;3.65;;;;;;;3.34;66.65;100285.78;5065038;28;20036;-60
2022/04/03 06:19:00;;;;;;;9.27;3.20;;;;;;;3.70;66.15;100287.34;5065043;28;20025;-62
2022/04/03 06:21:26;;;;;;;8.88;2.97;;;;;;;4.04;65.07;100283.59;5065033;28;20028;-60
2022/04/03 06:23:51;;;;;;;5.90;3.05;;;;;;;4.14;63.76;100271.78;5064800;28;20047;-59
2022/04/03 06:26:16;;;;;;;9.82;4.18;;;;;;;4.22;62.77;100280.44;5064850;28;20043;-59
2022/04/03 06:28:42;;;;;;;8.35;4.00;;;;;;;4.41;63.45;100279.03;5064591;28;20078;-61
2022/04/03 06:31:08;;;;;;;6.72;3.30;;;;;;;4.63;62.40;100274.22;5064875;28;20051;-60
2022/04/03 06:33:34;;;;;;;7.68;3.88;;;;;;;4.98;62.70;100278.09;5064783;28;20025;-61
2022/04/03 06:36:00;;;;;;;8.10;4.28;;;;;;;5.51;62.49;100270.94;5064571;28;20020;-61
2022/04/03 06:38:26;;;;;;;9.02;4.18;;;;;;;6.20;62.13;100267.28;5064309;28;20017;-60
2022/04/03 06:40:57;;;;;;;5.97;3.70;;;;;;;6.85;61.37;100268.56;5064431;28;20083;-60
2022/04/03 06:43:28;;;;;;;7.00;3.75;;;;;;;7.58;60.96;100270.50;5064647;28;20029;-61
2022/04/03 06:45:55;;;;;;;8.70;4.60;;;;;;;8.28;59.92;100265.34;5064401;28;20298;-61
2022/04/03 06:48:22;;;;;;;8.23;4.15;;;;;;;8.99;58.89;100260.00;5064176;28;20316;-61
2022/04/03 06:50:47;;;;;;;6.85;3.92;;;;;;;9.60;57.09;100249.31;5064254;28;20029;-62
2022/04/03 06:53:13;;;;;;;7.03;4.75;;;;;;;10.25;55.52;100258.31;5064423;28;20082;-61
2022/04/03 06:55:38;;;;;;;9.98;4.13;;;;;;;10.72;53.89;100260.47;5064303;28;20033;-61
2022/04/03 06:58:04;;;;;;;9.02;4.25;;;;;;;11.08;52.38;100253.09;5064304;28;20111;-61
2022/04/03 07:00:29;;;;;;;7.50;4.45;;;;;;;11.48;51.26;100258.59;5064308;28;20044;-61
2022/04/03 07:02:55;;;;;;;9.13;4.07;;;;;;;11.85;49.87;100247.63;5064055;28;20017;-61
2022/04/03 07:05:21;;;;;;;5.80;3.50;;;;;;;12.25;49.27;100250.50;5063993;28;20052;-60
2022/04/03 07:07:46;;;;;;;5.05;3.55;;;;;;;12.67;48.73;100241.03;5063975;28;20033;-60
2022/04/03 07:10:12;;;;;;;8.85;4.07;;;;;;;13.11;46.87;100248.81;5063892;28;20025;-61
2022/04/03 07:12:37;;;;;;;9.50;3.35;;;;;;;13.20;45.62;100246.00;5064148;28;20028;-63
2022/04/03 07:15:04;;;;;;;12.48;3.63;;;;;;;13.37;44.33;100244.78;5063832;28;20487;-63
2022/04/03 07:17:30;;;;;;;5.45;3.58;;;;;;;13.41;44.07;100242.94;5063475;28;20072;-62
2022/04/03 07:19:55;;;;;;;6.28;3.30;;;;;;;13.35;42.63;100249.16;5063664;28;20086;-62
2022/04/03 07:22:21;;;;;;;5.30;3.50;;;;;;;13.35;43.65;100241.34;5063806;28;20110;-62
2022/04/03 07:24:46;;;;;;;9.55;4.65;;;;;;;13.28;42.55;100235.41;5062942;28;20029;-62
2022/04/03 07:27:12;;;;;;;7.88;3.40;;;;;;;13.08;42.71;100231.47;5063829;28;20041;-62
2022/04/03 07:29:37;;;;;;;9.18;3.28;;;;;;;13.14;43.15;100236.59;5063593;28;20063;-62
2022/04/03 07:32:02;;;;;;;5.38;3.60;;;;;;;13.31;43.44;100237.94;5063904;28;20024;-62
2022/04/03 07:34:28;;;;;;;7.40;3.47;;;;;;;13.46;42.70;100233.28;5063261;28;20495;-61
2022/04/03 07:36:53;;;;;;;4.80;3.97;;;;;;;13.59;42.03;100228.66;5063851;28;20484;-62
2022/04/03 07:39:19;;;;;;;7.13;3.63;;;;;;;13.83;42.23;100224.59;5063854;28;20031;-62
2022/04/03 07:41:44;;;;;;;8.57;3.38;;;;;;;14.21;42.00;100227.13;5063636;28;20028;-63
2022/04/03 07:44:11;;;;;;;6.93;3.75;;;;;;;14.49;41.01;100226.34;5063436;28;20029;-63
2022/04/03 07:46:37;;;;;;;8.40;3.10;;;;;;;14.77;40.43;100226.47;5062927;28;20052;-61
2022/04/03 07:49:03;;;;;;;6.90;3.55;;;;;;;14.99;39.76;100216.28;5063309;28;20242;-62
2022/04/03 07:51:29;;;;;;;9.32;3.47;;;;;;;15.07;39.21;100224.75;5063232;28;20432;-62
2022/04/03 07:53:55;;;;;;;5.75;2.97;;;;;;;15.12;39.07;100216.75;5063312;28;20524;-63
2022/04/03 07:56:21;;;;;;;11.02;3.28;;;;;;;15.29;38.49;100226.69;5063462;28;20021;-63
2022/04/03 07:58:46;;;;;;;6.30;2.95;;;;;;;15.49;38.98;100220.81;5063258;28;20044;-63
2022/04/03 08:01:12;;;;;;;5.85;2.88;;;;;;;15.72;37.46;100219.22;5063424;28;20029;-63
2022/04/03 08:03:37;;;;;;;4.80;2.83;;;;;;;15.83;36.63;100220.66;5063199;28;20657;-62
2022/04/03 08:06:03;;;;;;;6.43;2.55;;;;;;;15.79;36.65;100214.66;5063128;28;20116;-62
2022/04/03 08:08:28;;;;;;;4.65;2.53;;;;;;;15.81;36.85;100215.47;5062953;28;20017;-62
2022/04/03 08:10:53;;;;;;;5.82;2.50;;;;;;;16.05;35.60;100218.19;5063388;28;20029;-62
2022/04/03 08:13:20;;;;;;;5.13;2.10;;;;;;;16.01;35.14;100216.56;5063121;28;20017;-62
2022/04/03 08:15:46;;;;;;;6.45;2.15;;;;;;;16.02;35.05;100207.81;5063283;28;20037;-60
2022/04/03 08:18:11;;;;;;;3.70;2.10;;;;;;;16.14;34.37;100206.53;5063276;28;20044;-61
2022/04/03 08:20:38;;;;;;;6.15;2.60;;;;;;;16.06;33.96;100204.19;5062826;28;20389;-66
2022/04/03 08:23:05;;;;;;;3.05;1.50;;;;;;;16.12;33.35;100212.75;5063197;28;20044;-64
2022/04/03 08:25:31;;;;;;;4.10;1.63;;;;;;;16.18;31.85;100202.88;5061679;28;20017;-64
2022/04/03 08:27:57;;;;;;;4.40;1.50;;;;;;;16.06;31.84;100209.41;5062696;28;20025;-69
2022/04/03 08:30:28;;;;;;;4.38;1.77;;;;;;;16.23;31.92;100205.34;5063085;28;20043;-66
2022/04/03 08:32:54;;;;;;;4.88;1.33;;;;;;;16.37;31.99;100207.50;5063129;28;20078;-65
2022/04/03 08:35:21;;;;;;;4.90;0.85;;;;;;;16.64;30.05;100201.28;5062626;28;20033;-63
2022/04/03 08:37:47;;;;;;;2.80;0.90;;;;;;;16.86;29.44;100198.72;5066897;28;20045;-62
2022/04/03 08:40:13;;;;;;;3.65;1.20;;;;;;;16.87;28.64;100202.19;5066795;28;20024;-70
2022/04/03 08:42:39;;;;;;;1.50;0.70;;;;;;;16.93;29.12;100200.16;5066952;28;20054;-69
2022/04/03 08:45:07;;;;;;;1.80;0.98;;;;;;;17.23;28.29;100209.56;5066742;28;20024;-65
2022/04/03 08:47:44;;;;;;;2.55;0.70;;;;;;;17.42;28.16;100199.19;5066963;28;20060;-67
2022/04/03 08:50:10;;;;;;;2.03;0.77;;;;;;;17.60;28.24;100196.75;5066706;28;20033;-66
2022/04/03 08:52:36;;;;;;;4.53;1.10;;;;;;;17.82;27.53;100193.19;5067049;28;20025;-67
2022/04/03 08:55:05;;;;;;;1.92;0.90;;;;;;;17.56;27.77;100192.50;5066716;28;20547;-64
2022/04/03 08:57:32;;;;;;;2.88;0.70;;;;;;;17.42;27.97;100195.72;5066766;28;20021;-62
2022/04/03 08:59:59;;;;;;;2.53;0.90;;;;;;;17.22;28.15;100192.97;5066605;28;20025;-62
2022/04/03 09:02:25;;;;;;;2.58;0.80;;;;;;;17.13;28.13;100189.84;5066557;28;20195;-63
2022/04/03 09:04:50;;;;;;;1.77;0.80;;;;;;;17.02;28.38;100183.25;5066548;28;20017;-68
2022/04/03 09:07:19;;;;;;;3.03;0.90;;;;;;;17.13;28.42;100181.97;5066785;28;20432;-68
2022/04/03 09:09:47;;;;;;;2.17;0.55;;;;;;;17.17;28.20;100175.72;5066626;28;20029;-71
2022/04/03 09:12:16;;;;;;;1.70;0.88;;;;;;;17.25;28.33;100183.28;5066418;28;20031;-69
2022/04/03 09:14:49;;;;;;;1.67;1.00;;;;;;;17.80;28.31;100174.88;5066332;28;20063;-68
2022/04/03 09:17:52;;;;;;;2.20;1.13;;;;;;;18.31;26.54;100168.38;5066068;28;20056;-69
2022/04/03 09:20:40;;;;;;;2.25;0.70;;;;;;;18.20;26.19;100171.47;5043225;28;20055;-69
2022/04/03 09:23:07;;;;;;;2.25;0.73;;;;;;;18.36;25.85;100165.53;5043669;28;20041;-69
2022/04/03 09:25:38;;;;;;;1.48;0.75;;;;;;;18.60;25.73;100163.56;5043195;28;20057;-63
2022/04/03 09:28:06;;;;;;;1.75;0.90;;;;;;;18.76;25.30;100176.00;5042952;28;20164;-63
2022/04/03 09:30:36;;;;;;;2.13;0.85;;;;;;;19.09;24.93;100164.81;5043015;28;20045;-62
2022/04/03 09:33:04;;;;;;;3.33;1.00;;;;;;;19.23;24.13;100163.31;5042813;28;20030;-62
2022/04/03 09:35:32;;;;;;;3.00;0.95;;;;;;;19.29;23.95;100157.75;5042760;28;20041;-61
2022/04/03 09:38:14;;;;;;;1.77;0.77;;;;;;;19.13;24.59;100162.91;5042733;28;20104;-61
2022/04/03 09:40:40;;;;;;;;;;;;;;;19.36;23.66;100156.50;5043396;28;20042;-59
2022/04/03 09:43:25;;;;;;;2.47;0.70;;;;;;;19.23;23.48;100164.19;5042635;28;19915;-60
2022/04/03 09:45:54;;;;;;;2.53;0.77;;;;;;;19.06;23.81;100157.91;5042441;28;20191;-61
2022/04/03 09:48:25;;;;;;;2.47;0.65;;;;;;;19.11;23.35;100152.47;5041182;28;20041;-64
2022/04/03 09:51:19;;;;;;;1.40;0.80;;;;;;;18.93;23.56;100162.91;5042321;28;20029;-60
2022/04/03 09:53:46;;;;;;;2.72;0.55;;;;;;;19.06;23.24;100152.66;5045263;28;20300;-61
2022/04/03 09:56:23;;;;;;;3.38;0.80;;;;;;;19.19;22.96;100149.44;5064959;28;20031;-61
2022/04/03 09:58:51;;;;;;;1.90;0.50;;;;;;;19.06;22.36;100151.78;5064931;28;20489;-61
2022/04/03 10:01:46;;;;;;;3.28;0.80;;;;;;;18.75;23.19;100154.13;5064980;28;20051;-60
2022/04/03 10:04:14;;;;;;;1.40;0.52;;;;;;;18.86;23.47;100147.50;5064378;28;20249;-59
2022/04/03 10:06:40;;;;;;;2.35;0.70;;;;;;;18.79;22.18;100137.28;5063893;28;20024;-60
2022/04/03 10:09:11;;;;;;;1.92;0.50;;;;;;;18.48;22.62;100138.72;5064998;28;20084;-64
2022/04/03 10:11:40;;;;;;;1.85;0.47;;;;;;;18.25;22.96;100135.34;5065181;28;20085;-65
2022/04/03 10:14:06;;;;;;;3.22;1.15;;;;;;;18.31;23.27;100139.47;5064770;28;20054;-64
2022/04/03 10:16:32;;;;;;;1.85;0.70;;;;;;;18.65;23.19;100134.44;5064809;28;20056;-64
2022/04/03 10:18:57;;;;;;;2.22;0.60;;;;;;;18.97;22.40;100132.06;5064319;28;20025;-64
2022/04/03 10:21:44;;;;;;;3.55;0.60;;;;;;;19.00;22.78;100124.03;5064235;28;20025;-63
2022/04/03 10:24:15;;;;;;;1.45;0.50;;;;;;;18.98;22.63;100125.03;5064601;28;20021;-64
2022/04/03 10:26:42;;;;;;;1.70;0.67;;;;;;;18.81;22.36;100122.28;5064737;28;20025;-63
2022/04/03 10:29:10;;;;;;;1.33;0.60;;;;;;;18.75;22.85;100125.22;5064682;28;20032;-64
2022/04/03 10:31:38;;;;;;;2.45;0.68;;;;;;;18.92;22.21;100121.75;5064540;28;20054;-64
2022/04/03 10:34:05;;;;;;;3.80;0.60;;;;;;;18.81;22.35;100124.91;5064679;28;20112;-64
2022/04/03 10:36:30;;;;;;;1.45;0.73;;;;;;;18.82;21.99;100123.97;5064642;28;20084;-64
2022/04/03 10:38:55;;;;;;;1.30;0.50;;;;;;;18.56;22.50;100119.97;5064653;28;20043;-64
2022/04/03 10:41:40;;;;;;;1.42;0.60;;;;;;;18.42;22.65;100123.19;5064861;28;20021;-64
2022/04/03 10:44:19;;;;;;;1.02;0.50;;;;;;;18.07;22.13;100118.59;5064741;28;20021;-65
2022/04/03 10:47:05;;;;;;;2.25;0.68;;;;;;;17.61;22.16;100122.31;5064131;28;20052;-64
2022/04/03 10:49:31;;;;;;;1.52;0.80;;;;;;;17.30;22.40;100121.81;5062845;28;20028;-65
2022/04/03 10:52:02;;;;;;;5.55;0.63;;;;;;;16.97;22.30;100124.88;5064642;28;20021;-64
2022/04/03 10:54:32;;;;;;;1.13;0.65;;;;;;;16.32;22.98;100122.97;5064409;28;20024;-63
2022/04/03 10:57:55;;;;;;;1.10;0.60;;;;;;;15.69;24.34;100112.03;5064454;28;20032;-63
2022/04/03 11:00:23;;;;;;;3.10;0.63;;;;;;;15.30;25.63;100118.59;5041627;28;20048;-64
2022/04/03 11:03:21;;;;;;;2.60;0.80;;;;;;;15.10;26.30;100107.00;5041392;28;20041;-65
2022/04/03 11:05:47;;;;;;;1.75;0.60;;;;;;;15.27;26.78;100100.34;5041092;28;20097;-64
2022/04/03 11:08:13;;;;;;;1.10;0.60;;;;;;;15.64;26.98;100113.13;5041644;28;20056;-64
2022/04/03 11:10:54;;;;;;;0.93;0.50;;;;;;;16.10;26.53;100101.03;5041489;28;20399;-64
2022/04/03 11:13:22;;;;;;;1.57;0.73;;;;;;;16.67;26.07;100106.81;5041424;28;20690;-65
2022/04/03 11:15:57;;;;;;;2.47;0.60;;;;;;;17.07;25.60;100094.75;5041340;28;20263;-64
2022/04/03 11:18:28;;;;;;;1.17;0.50;;;;;;;16.95;26.32;100103.09;5041231;28;20030;-65
2022/04/03 11:21:26;;;;;;;2.65;0.80;;;;;;;17.37;25.61;100092.69;5041269;28;20033;-65
2022/04/03 11:23:55;;;;;;;3.00;0.65;;;;;;;17.30;25.77;100084.25;5041397;28;20048;-64
2022/04/03 11:26:22;;;;;;;0.98;0.50;;;;;;;17.36;25.24;100091.00;5041453;28;20136;-64
2022/04/03 11:28:47;;;;;;;2.50;0.60;;;;;;;17.29;24.87;100086.03;5041154;28;20501;-65
2022/04/03 11:31:13;;;;;;;2.05;0.55;;;;;;;16.07;25.36;100076.75;5053603;28;20101;-63